createdAt,value
2022-08-30T00:02:21.282Z,5.40
2022-08-30T00:04:55.649Z,5.30
2022-08-30T00:07:29.149Z,5.90
2022-08-30T00:10:02.435Z,5.50
2022-08-30T00:12:36.292Z,5.10
2022-08-30T00:15:12.286Z,5.40
2022-08-30T00:17:46.356Z,5.50
2022-08-30T00:20:24.686Z,5.40
2022-08-30T00:22:58.697Z,5.00
2022-08-30T00:25:32.448Z,5.20
2022-08-30T00:28:06.764Z,5.90
2022-08-30T00:30:40.919Z,5.50
2022-08-30T00:33:15.783Z,5.00
2022-08-30T00:35:50.771Z,5.50
2022-08-30T00:38:24.791Z,5.70
2022-08-30T00:41:00.075Z,5.90
2022-08-30T00:43:36.781Z,5.60
2022-08-30T00:46:10.683Z,5.40
2022-08-30T00:48:48.211Z,6.30
2022-08-30T00:51:22.742Z,5.80
2022-08-30T00:53:59.561Z,5.30
2022-08-30T00:56:34.751Z,5.30
2022-08-30T00:59:09.478Z,5.50
2022-08-30T01:01:43.671Z,6.10
2022-08-30T01:04:20.456Z,5.90
2022-08-30T01:06:54.711Z,5.60
2022-08-30T01:09:28.720Z,5.90
2022-08-30T01:12:02.317Z,5.80
2022-08-30T01:14:36.502Z,5.70
2022-08-30T01:17:12.509Z,6.00
2022-08-30T01:19:51.552Z,5.60
2022-08-30T01:25:02.454Z,5.90
2022-08-30T01:27:39.639Z,5.70
2022-08-30T01:30:14.956Z,5.90
2022-08-30T01:32:52.212Z,6.10
2022-08-30T01:35:25.228Z,6.20
2022-08-30T01:37:59.144Z,6.70
2022-08-30T01:40:32.626Z,6.00
2022-08-30T01:43:06.023Z,6.10
2022-08-30T01:45:39.750Z,6.00
2022-08-30T01:48:13.755Z,5.90
2022-08-30T01:50:48.658Z,7.30
2022-08-30T01:53:22.754Z,6.60
2022-08-30T01:55:56.511Z,6.70
2022-08-30T01:58:30.272Z,6.70
2022-08-30T02:01:04.062Z,5.70
2022-08-30T02:03:39.203Z,6.50
2022-08-30T02:06:15.689Z,6.20
2022-08-30T02:08:50.009Z,6.50
2022-08-30T02:11:23.225Z,6.70
2022-08-30T02:13:56.984Z,6.70
2022-08-30T02:16:32.323Z,6.90
2022-08-30T02:19:06.122Z,6.30
2022-08-30T02:21:39.942Z,6.80
2022-08-30T02:24:13.640Z,7.10
2022-08-30T02:26:47.262Z,7.30
2022-08-30T02:29:21.098Z,6.80
2022-08-30T02:31:54.681Z,6.40
2022-08-30T02:34:27.976Z,7.10
2022-08-30T02:37:01.463Z,6.70
2022-08-30T02:39:34.928Z,7.50
2022-08-30T02:42:09.053Z,7.00
2022-08-30T02:44:42.776Z,7.40
2022-08-30T02:47:16.069Z,6.80
2022-08-30T02:49:49.633Z,6.30
2022-08-30T02:52:27.884Z,7.30
2022-08-30T02:57:33.938Z,7.80
2022-08-30T03:00:09.971Z,7.80
2022-08-30T03:02:43.665Z,7.40
2022-08-30T03:05:19.411Z,10.70
2022-08-30T03:07:52.824Z,6.90
2022-08-30T03:10:26.103Z,7.70
2022-08-30T03:12:59.691Z,7.70
2022-08-30T03:15:33.149Z,7.90
2022-08-30T03:18:07.009Z,7.10
2022-08-30T03:20:40.425Z,6.30
2022-08-30T03:23:21.888Z,7.40
2022-08-30T03:25:55.375Z,8.20
2022-08-30T03:28:29.967Z,8.10
2022-08-30T03:31:03.417Z,8.70
2022-08-30T03:33:37.261Z,7.40
2022-08-30T03:36:12.449Z,7.20
2022-08-30T03:38:45.782Z,7.10
2022-08-30T03:41:19.400Z,7.90
2022-08-30T03:43:53.576Z,7.90
2022-08-30T03:46:37.209Z,8.10
2022-08-30T03:49:11.250Z,8.10
2022-08-30T03:51:44.937Z,7.50
2022-08-30T03:54:18.694Z,8.10
2022-08-30T03:56:52.220Z,8.00
2022-08-30T03:59:25.955Z,8.60
2022-08-30T04:02:00.264Z,8.20
2022-08-30T04:04:33.961Z,7.90
2022-08-30T04:07:07.155Z,7.30
2022-08-30T04:09:40.413Z,8.00
2022-08-30T04:12:13.743Z,8.10
2022-08-30T04:14:52.214Z,9.00
2022-08-30T04:17:25.933Z,8.70
2022-08-30T04:19:59.614Z,8.30
2022-08-30T04:22:33.409Z,8.80
2022-08-30T04:25:07.142Z,7.60
2022-08-30T04:27:40.502Z,7.70
2022-08-30T04:30:16.118Z,8.30
2022-08-30T04:32:49.878Z,7.70
2022-08-30T04:35:23.942Z,7.90
2022-08-30T04:37:58.452Z,7.70
2022-08-30T04:40:32.356Z,7.90
2022-08-30T04:43:06.481Z,7.70
2022-08-30T04:45:41.623Z,8.20
2022-08-30T04:48:14.764Z,8.20
2022-08-30T04:50:48.179Z,7.80
2022-08-30T04:53:21.829Z,6.70
2022-08-30T04:55:55.063Z,7.60
2022-08-30T04:58:28.742Z,6.80
2022-08-30T05:01:01.979Z,7.20
2022-08-30T05:03:36.008Z,6.80
2022-08-30T05:06:12.893Z,6.80
2022-08-30T05:08:47.002Z,5.90
2022-08-30T05:11:20.617Z,5.70
2022-08-30T05:13:54.637Z,5.70
2022-08-30T05:16:28.147Z,5.10
2022-08-30T05:19:01.579Z,5.70
2022-08-30T05:21:35.056Z,5.50
2022-08-30T05:24:09.570Z,5.30
2022-08-30T05:26:43.003Z,5.40
2022-08-30T05:29:16.035Z,4.20
2022-08-30T05:31:49.502Z,5.70
2022-08-30T05:34:23.053Z,4.50
2022-08-30T05:36:56.290Z,4.10
2022-08-30T05:39:51.390Z,4.80
2022-08-30T05:42:23.899Z,4.10
2022-08-30T05:44:57.787Z,4.40
2022-08-30T05:47:31.339Z,4.00
2022-08-30T05:50:04.653Z,3.80
2022-08-30T05:52:41.416Z,3.90
2022-08-30T05:55:16.369Z,3.80
2022-08-30T05:57:50.282Z,4.10
2022-08-30T06:00:24.453Z,3.70
2022-08-30T06:02:57.856Z,3.30
2022-08-30T06:05:31.451Z,3.90
2022-08-30T06:08:08.399Z,4.10
2022-08-30T06:10:41.722Z,3.50
2022-08-30T06:13:16.384Z,3.80
2022-08-30T06:15:49.915Z,3.80
2022-08-30T06:18:28.569Z,4.20
2022-08-30T06:21:02.386Z,3.20
2022-08-30T06:23:36.213Z,3.70
2022-08-30T06:26:10.571Z,3.30
2022-08-30T06:28:44.371Z,3.60
2022-08-30T06:31:19.948Z,3.50
2022-08-30T06:33:53.658Z,3.20
2022-08-30T06:36:28.520Z,3.20
2022-08-30T06:39:02.427Z,3.10
2022-08-30T06:41:38.251Z,3.00
2022-08-30T06:44:18.358Z,2.70
2022-08-30T06:46:51.926Z,3.10
2022-08-30T06:49:25.373Z,3.00
2022-08-30T06:51:58.796Z,3.10
2022-08-30T06:54:32.485Z,3.40
2022-08-30T06:57:06.270Z,3.00
2022-08-30T06:59:40.120Z,3.20
2022-08-30T07:02:13.669Z,2.70
2022-08-30T07:04:46.923Z,2.30
2022-08-30T07:07:22.319Z,2.80
2022-08-30T07:09:58.228Z,2.70
2022-08-30T07:12:32.229Z,2.80
2022-08-30T07:15:06.625Z,2.60
2022-08-30T07:17:57.068Z,2.70
2022-08-30T07:20:39.980Z,2.70
2022-08-30T07:23:14.741Z,3.00
2022-08-30T07:25:48.299Z,2.30
2022-08-30T07:28:21.623Z,2.50
2022-08-30T07:30:55.011Z,2.60
2022-08-30T07:33:28.372Z,2.90
2022-08-30T07:36:02.016Z,2.40
2022-08-30T07:38:35.991Z,2.30
2022-08-30T07:41:09.780Z,2.50
2022-08-30T07:43:43.140Z,2.40
2022-08-30T07:46:17.732Z,2.20
2022-08-30T07:48:51.537Z,2.10
2022-08-30T07:51:27.424Z,2.30
2022-08-30T07:54:00.902Z,2.80
2022-08-30T07:56:34.220Z,2.80
2022-08-30T07:59:07.197Z,2.40
2022-08-30T08:01:40.701Z,2.70
2022-08-30T08:04:14.057Z,2.30
2022-08-30T08:06:47.300Z,2.90
2022-08-30T08:09:20.702Z,2.30
2022-08-30T08:11:54.156Z,2.10
2022-08-30T08:14:28.889Z,2.40
2022-08-30T08:17:02.099Z,2.20
2022-08-30T08:19:35.545Z,2.60
2022-08-30T08:22:20.439Z,2.30
2022-08-30T08:24:55.183Z,1.80
2022-08-30T08:27:29.467Z,2.00
2022-08-30T08:30:02.961Z,2.70
2022-08-30T08:32:36.146Z,2.20
2022-08-30T08:35:11.896Z,1.90
2022-08-30T08:37:46.043Z,1.90
2022-08-30T08:40:21.953Z,1.90
2022-08-30T08:43:11.862Z,2.00
2022-08-30T08:45:56.122Z,1.70
2022-08-30T08:48:59.092Z,2.10
2022-08-30T08:51:53.622Z,2.00
2022-08-30T08:54:32.511Z,1.80
2022-08-30T08:57:06.042Z,2.10
2022-08-30T08:59:39.366Z,1.80
2022-08-30T09:02:25.994Z,2.60
2022-08-30T09:05:01.831Z,1.70
2022-08-30T09:07:41.592Z,1.60
2022-08-30T09:10:16.769Z,1.60
2022-08-30T09:12:51.855Z,1.60
2022-08-30T09:15:27.473Z,1.50
2022-08-30T09:18:04.654Z,1.90
2022-08-30T09:20:41.654Z,1.50
2022-08-30T09:23:33.019Z,1.50
2022-08-30T09:26:09.331Z,1.70
2022-08-30T09:28:52.213Z,1.60
2022-08-30T09:31:28.112Z,2.30
2022-08-30T09:34:05.703Z,2.50
2022-08-30T09:36:46.608Z,2.20
2022-08-30T09:39:22.423Z,1.80
2022-08-30T09:42:15.502Z,1.50
2022-08-30T09:44:48.910Z,1.60
2022-08-30T09:47:32.042Z,1.60
2022-08-30T09:50:10.545Z,1.60
2022-08-30T09:55:49.740Z,1.50
2022-08-30T09:58:31.898Z,1.40
2022-08-30T10:01:12.964Z,1.50
2022-08-30T10:03:53.572Z,1.40
2022-08-30T10:06:35.948Z,1.20
2022-08-30T10:09:23.094Z,2.40
2022-08-30T10:12:06.678Z,1.60
2022-08-30T10:14:53.619Z,1.30
2022-08-30T10:17:42.302Z,1.60
2022-08-30T10:20:30.308Z,1.40
2022-08-30T10:23:11.608Z,1.20
2022-08-30T10:25:50.518Z,1.00
2022-08-30T10:28:35.799Z,1.30
2022-08-30T10:31:12.873Z,3.40
2022-08-30T10:33:53.181Z,2.00
2022-08-30T10:36:34.333Z,1.30
2022-08-30T10:39:09.986Z,0.90
2022-08-30T10:41:52.093Z,0.90
2022-08-30T10:44:30.694Z,1.00
2022-08-30T10:47:18.500Z,1.00
2022-08-30T10:50:05.296Z,1.10
2022-08-30T10:52:43.638Z,1.00
2022-08-30T10:55:23.555Z,1.40
2022-08-30T10:58:01.169Z,1.80
2022-08-30T11:00:45.794Z,1.60
2022-08-30T11:03:46.689Z,1.60
2022-08-30T11:06:27.092Z,1.30
2022-08-30T11:09:16.454Z,1.10
2022-08-30T11:12:25.496Z,1.30
2022-08-30T11:15:01.229Z,1.10
2022-08-30T11:17:38.845Z,1.50
2022-08-30T11:20:30.913Z,1.30
2022-08-30T11:23:27.500Z,1.10
2022-08-30T11:26:15.922Z,1.50
2022-08-30T11:29:10.464Z,1.40
2022-08-30T11:31:45.314Z,2.90
2022-08-30T11:34:57.882Z,2.80
2022-08-30T11:37:43.325Z,1.60
2022-08-30T11:40:49.730Z,1.50
2022-08-30T11:43:56.688Z,0.90
2022-08-30T11:46:42.813Z,1.00
2022-08-30T11:49:50.643Z,1.10
2022-08-30T11:52:52.305Z,0.90
2022-08-30T11:55:45.720Z,0.90
2022-08-30T11:58:31.914Z,0.90
2022-08-30T12:01:41.990Z,1.40
2022-08-30T12:04:30.469Z,0.90
2022-08-30T12:07:05.930Z,1.20
2022-08-30T12:10:09.396Z,1.30
2022-08-30T12:13:02.451Z,1.30
2022-08-30T12:15:59.401Z,1.20
2022-08-30T12:18:46.490Z,0.90
2022-08-30T12:21:33.459Z,1.40
2022-08-30T12:24:25.977Z,1.10
2022-08-30T12:26:59.980Z,1.10
2022-08-30T12:29:34.079Z,1.30
2022-08-30T12:32:19.810Z,1.20
2022-08-30T12:34:58.448Z,1.00
2022-08-30T12:40:12.119Z,1.60
2022-08-30T12:42:53.617Z,1.50
2022-08-30T12:45:30.744Z,1.20
2022-08-30T12:48:06.978Z,1.20
2022-08-30T12:50:49.309Z,1.40
2022-08-30T12:53:29.375Z,1.50
2022-08-30T12:56:05.961Z,2.50
2022-08-30T12:58:48.379Z,1.50
2022-08-30T13:01:28.999Z,1.30
2022-08-30T13:04:14.080Z,1.20
2022-08-30T13:06:54.143Z,1.70
2022-08-30T13:09:34.346Z,1.90
2022-08-30T13:12:10.272Z,2.00
2022-08-30T13:14:45.486Z,1.90
2022-08-30T13:17:30.273Z,1.60
2022-08-30T13:20:08.943Z,1.40
2022-08-30T13:22:43.823Z,1.40
2022-08-30T13:25:17.395Z,1.70
2022-08-30T13:27:50.941Z,1.50
2022-08-30T13:30:24.585Z,1.80
2022-08-30T13:32:59.496Z,1.40
2022-08-30T13:35:34.120Z,1.10
2022-08-30T13:38:07.450Z,1.10
2022-08-30T13:40:41.117Z,1.20
2022-08-30T13:43:15.539Z,1.30
2022-08-30T13:45:49.436Z,1.40
2022-08-30T13:48:24.656Z,1.10
2022-08-30T13:50:58.628Z,1.20
2022-08-30T13:56:26.040Z,1.10
2022-08-30T13:58:59.470Z,1.10
2022-08-30T14:02:07.689Z,1.30
2022-08-30T14:04:26.679Z,1.10
2022-08-30T14:07:20.299Z,1.10
2022-08-30T14:09:54.285Z,1.20
2022-08-30T14:13:00.602Z,1.30
2022-08-30T14:15:42.119Z,1.30
2022-08-30T14:18:17.915Z,1.10
2022-08-30T14:20:51.416Z,1.20
2022-08-30T14:23:24.522Z,0.80
2022-08-30T14:26:00.066Z,1.10
2022-08-30T14:28:33.236Z,1.30
2022-08-30T14:31:09.576Z,1.10
2022-08-30T14:33:42.864Z,1.10
2022-08-30T14:36:16.068Z,1.20
2022-08-30T14:38:49.045Z,0.90
2022-08-30T14:41:23.262Z,1.20
2022-08-30T14:43:56.475Z,1.10
2022-08-30T14:46:30.033Z,0.90
2022-08-30T14:49:03.396Z,0.90
2022-08-30T14:51:40.088Z,1.30
2022-08-30T14:54:14.391Z,1.10
2022-08-30T14:56:47.427Z,1.00
2022-08-30T14:59:21.205Z,0.90
2022-08-30T15:01:54.584Z,0.90
2022-08-30T15:04:27.812Z,1.00
2022-08-30T15:07:00.596Z,1.10
2022-08-30T15:09:34.478Z,1.00
2022-08-30T15:12:09.055Z,0.90
2022-08-30T15:14:42.170Z,1.10
2022-08-30T15:17:18.144Z,0.90
2022-08-30T15:19:51.441Z,1.20
2022-08-30T15:22:24.392Z,1.20
2022-08-30T15:24:57.575Z,1.10
2022-08-30T15:27:31.356Z,0.90
2022-08-30T15:30:04.546Z,1.30
2022-08-30T15:32:37.925Z,2.30
2022-08-30T15:35:12.694Z,1.30
2022-08-30T15:37:45.486Z,0.80
2022-08-30T15:40:19.178Z,1.30
2022-08-30T15:42:52.161Z,1.10
2022-08-30T15:45:25.075Z,1.10
2022-08-30T15:48:00.686Z,1.50
2022-08-30T15:50:33.920Z,1.30
2022-08-30T15:53:07.602Z,1.50
2022-08-30T15:55:40.850Z,1.00
2022-08-30T15:58:13.849Z,1.20
2022-08-30T16:00:47.003Z,1.10
2022-08-30T16:03:20.182Z,1.40
2022-08-30T16:05:53.166Z,1.10
2022-08-30T16:08:26.474Z,1.20
2022-08-30T16:10:59.732Z,1.10
2022-08-30T16:13:32.832Z,1.40
2022-08-30T16:16:08.319Z,1.40
2022-08-30T16:18:42.021Z,1.20
2022-08-30T16:21:18.689Z,1.30
2022-08-30T16:23:53.288Z,1.20
2022-08-30T16:26:28.629Z,2.10
2022-08-30T16:29:03.426Z,1.60
2022-08-30T16:31:37.764Z,2.50
2022-08-30T16:34:11.387Z,1.90
2022-08-30T16:36:44.947Z,1.70
2022-08-30T16:39:19.236Z,1.70
2022-08-30T16:41:53.725Z,1.50
2022-08-30T16:44:29.830Z,1.30
2022-08-30T16:47:03.661Z,1.50
2022-08-30T16:49:37.173Z,1.40
2022-08-30T16:52:11.776Z,1.60
2022-08-30T16:54:45.283Z,1.60
2022-08-30T16:57:18.789Z,1.50
2022-08-30T16:59:53.723Z,1.50
2022-08-30T17:02:27.577Z,1.80
2022-08-30T17:05:01.087Z,1.80
2022-08-30T17:07:34.267Z,2.20
2022-08-30T17:10:08.932Z,1.40
2022-08-30T17:12:42.636Z,1.40
2022-08-30T17:15:20.279Z,1.60
2022-08-30T17:17:53.623Z,1.90
2022-08-30T17:20:31.410Z,1.30
2022-08-30T17:23:07.477Z,1.40
2022-08-30T17:25:41.748Z,1.30
2022-08-30T17:28:15.717Z,1.10
2022-08-30T17:30:49.357Z,1.30
2022-08-30T17:33:25.475Z,1.10
2022-08-30T17:35:59.125Z,1.00
2022-08-30T17:38:33.338Z,1.20
2022-08-30T17:41:09.217Z,0.90
2022-08-30T17:43:42.537Z,1.10
2022-08-30T17:46:18.951Z,1.10
2022-08-30T17:48:56.549Z,1.10
2022-08-30T17:51:36.060Z,1.00
2022-08-30T17:54:09.437Z,1.00
2022-08-30T17:56:43.319Z,1.10
2022-08-30T17:59:18.888Z,1.20
2022-08-30T18:01:59.154Z,1.00
2022-08-30T18:04:33.184Z,0.80
2022-08-30T18:07:07.177Z,1.00
2022-08-30T18:09:40.989Z,1.10
2022-08-30T18:12:14.611Z,1.00
2022-08-30T18:14:52.629Z,0.90
2022-08-30T18:17:26.738Z,1.00
2022-08-30T18:20:00.522Z,1.10
2022-08-30T18:22:36.051Z,1.30
2022-08-30T18:25:11.649Z,1.10
2022-08-30T18:27:50.292Z,0.80
2022-08-30T18:30:34.686Z,1.10
2022-08-30T18:33:13.734Z,0.70
2022-08-30T18:35:48.359Z,1.00
2022-08-30T18:38:24.177Z,0.90
2022-08-30T18:41:02.541Z,0.90
2022-08-30T18:43:36.888Z,0.90
2022-08-30T18:46:14.018Z,0.90
2022-08-30T18:48:48.274Z,0.90
2022-08-30T18:51:24.787Z,0.90
2022-08-30T18:53:59.234Z,1.10
2022-08-30T18:56:34.125Z,1.30
2022-08-30T18:59:08.163Z,1.20
2022-08-30T19:01:44.501Z,1.20
2022-08-30T19:04:22.250Z,1.00
2022-08-30T19:07:04.150Z,1.10
2022-08-30T19:09:38.353Z,1.10
2022-08-30T19:12:12.120Z,0.80
2022-08-30T19:14:45.916Z,1.10
2022-08-30T19:17:20.362Z,1.20
2022-08-30T19:19:54.964Z,1.30
2022-08-30T19:22:39.872Z,0.90
2022-08-30T19:25:24.562Z,1.00
2022-08-30T19:27:58.159Z,1.10
2022-08-30T19:30:31.716Z,1.10
2022-08-30T19:33:06.307Z,1.10
2022-08-30T19:35:40.058Z,1.40
2022-08-30T19:38:13.543Z,1.00
2022-08-30T19:40:54.530Z,1.40
2022-08-30T19:43:30.610Z,1.20
2022-08-30T19:46:04.551Z,1.10
2022-08-30T19:48:43.498Z,1.40
2022-08-30T19:51:17.807Z,1.20
2022-08-30T19:53:52.670Z,1.10
2022-08-30T19:56:29.985Z,1.60
2022-08-30T19:59:03.451Z,1.30
2022-08-30T20:01:37.105Z,1.40
2022-08-30T20:04:11.564Z,1.40
2022-08-30T20:06:45.322Z,1.10
2022-08-30T20:09:19.208Z,1.20
2022-08-30T20:11:55.376Z,1.30
2022-08-30T20:14:33.184Z,1.70
2022-08-30T20:17:07.303Z,1.40
2022-08-30T20:19:46.403Z,1.20
2022-08-30T20:22:19.730Z,1.30
2022-08-30T20:24:52.784Z,1.60
2022-08-30T20:27:30.241Z,1.40
2022-08-30T20:30:04.160Z,1.30
2022-08-30T20:32:39.013Z,2.30
2022-08-30T20:35:13.303Z,1.60
2022-08-30T20:37:47.447Z,1.20
2022-08-30T20:40:22.169Z,1.20
2022-08-30T20:42:55.420Z,2.40
2022-08-30T20:45:30.950Z,1.40
2022-08-30T20:48:06.141Z,1.20
2022-08-30T20:50:41.785Z,1.50
2022-08-30T20:53:15.493Z,1.90
2022-08-30T20:55:49.780Z,2.20
2022-08-30T20:58:23.561Z,1.70
2022-08-30T21:00:58.836Z,2.00
2022-08-30T21:03:32.842Z,1.80
2022-08-30T21:06:07.701Z,1.50
2022-08-30T21:08:41.543Z,1.40
2022-08-30T21:11:14.962Z,2.10
2022-08-30T21:13:49.150Z,1.90
2022-08-30T21:16:22.944Z,1.70
2022-08-30T21:18:56.295Z,1.60
2022-08-30T21:21:30.816Z,1.70
2022-08-30T21:24:10.466Z,1.70
2022-08-30T21:26:44.689Z,1.30
2022-08-30T21:29:19.131Z,1.50
2022-08-30T21:31:52.587Z,1.70
2022-08-30T21:34:26.162Z,1.50
2022-08-30T21:36:59.239Z,1.70
2022-08-30T21:39:32.417Z,1.80
2022-08-30T21:42:06.498Z,1.60
2022-08-30T21:44:40.292Z,1.50
2022-08-30T21:47:14.221Z,1.40
2022-08-30T21:49:56.979Z,1.40
2022-08-30T21:52:30.170Z,1.70
2022-08-30T21:55:03.851Z,1.60
2022-08-30T21:57:37.652Z,1.60
2022-08-30T22:00:19.371Z,1.90
2022-08-30T22:02:53.256Z,1.40
2022-08-30T22:05:26.825Z,2.00
2022-08-30T22:08:00.598Z,1.60
2022-08-30T22:10:34.253Z,1.90
2022-08-30T22:13:10.750Z,1.50
2022-08-30T22:15:44.350Z,1.80
2022-08-30T22:18:17.696Z,1.90
2022-08-30T22:20:51.516Z,2.20
2022-08-30T22:23:26.221Z,1.50
2022-08-30T22:26:00.726Z,2.20
2022-08-30T22:28:34.395Z,1.90
2022-08-30T22:31:09.695Z,1.70
2022-08-30T22:33:44.569Z,1.80
2022-08-30T22:36:21.421Z,1.80
2022-08-30T22:38:58.303Z,1.60
2022-08-30T22:41:34.320Z,1.80
2022-08-30T22:44:07.961Z,1.40
2022-08-30T22:46:41.855Z,1.90
2022-08-30T22:49:15.981Z,1.80
2022-08-30T22:51:50.049Z,1.80
2022-08-30T22:54:23.435Z,1.80
2022-08-30T22:56:57.053Z,1.90
2022-08-30T22:59:31.446Z,1.60
2022-08-30T23:02:06.163Z,1.50
2022-08-30T23:04:41.222Z,1.80
2022-08-30T23:07:14.538Z,2.40
2022-08-30T23:09:47.453Z,1.70
2022-08-30T23:12:20.746Z,2.00
2022-08-30T23:14:53.683Z,1.60
2022-08-30T23:17:27.655Z,1.60
2022-08-30T23:20:05.820Z,1.70
2022-08-30T23:22:39.054Z,1.80
2022-08-30T23:25:32.159Z,1.80
2022-08-30T23:28:33.709Z,1.80
2022-08-30T23:31:31.780Z,2.00
2022-08-30T23:34:22.996Z,2.20
2022-08-30T23:37:13.729Z,1.90
2022-08-30T23:40:05.629Z,1.80
2022-08-30T23:42:57.699Z,1.90
2022-08-30T23:45:49.299Z,2.10
2022-08-30T23:48:40.402Z,1.70
2022-08-30T23:51:41.850Z,2.50
2022-08-30T23:54:33.002Z,1.60
2022-08-30T23:57:24.532Z,1.60
